Time;durP1;ratioP1;P1;durP2;ratioP2;P2;SDS_P1;SDS_P2;PMS_P1;PMS_P2;Temp;Humidity;BMP_temperature;BMP_pressure;BME280_temperature;BME280_humidity;BME280_pressure;Samples;Min_cycle;Max_cycle;Signal;HPM_P1;HPM_P2
2023/01/16 00:00:20;;;;;;;8.90;3.67;;;4.20;99.90;;;;;;5071824;28;20057;-49
2023/01/16 00:02:47;;;;;;;7.63;3.53;;;4.20;99.90;;;;;;5070040;28;20045;-55
2023/01/16 00:05:14;;;;;;;13.00;3.30;;;4.20;99.90;;;;;;5050579;28;20100;-55
2023/01/16 00:07:42;;;;;;;11.73;3.75;;;4.20;99.90;;;;;;5059854;28;20076;-56
2023/01/16 00:10:10;;;;;;;8.23;2.72;;;4.20;99.90;;;;;;5050304;28;20080;-55
2023/01/16 00:12:37;;;;;;;7.03;3.00;;;4.10;99.90;;;;;;5067114;28;21507;-54
2023/01/16 00:15:04;;;;;;;10.40;2.97;;;4.10;99.90;;;;;;5071370;28;20044;-57
2023/01/16 00:17:31;;;;;;;9.88;3.13;;;4.10;99.90;;;;;;5071828;28;20499;-56
2023/01/16 00:19:58;;;;;;;10.35;2.90;;;4.00;99.90;;;;;;5071606;28;20502;-58
2023/01/16 00:22:25;;;;;;;8.75;2.80;;;4.00;99.90;;;;;;5071015;28;20098;-56
2023/01/16 00:24:53;;;;;;;7.32;2.90;;;4.00;99.90;;;;;;5069846;28;20384;-58
2023/01/16 00:27:20;;;;;;;8.15;2.67;;;4.00;99.90;;;;;;5072162;28;20090;-57
2023/01/16 00:29:46;;;;;;;12.40;3.53;;;4.00;99.90;;;;;;5070667;28;20064;-58
2023/01/16 00:32:15;;;;;;;8.05;3.20;;;4.00;99.90;;;;;;5072738;28;20048;-56
2023/01/16 00:34:41;;;;;;;10.55;3.03;;;4.00;99.90;;;;;;5054225;28;20118;-58
2023/01/16 00:37:08;;;;;;;7.57;2.53;;;4.00;99.90;;;;;;5065696;28;20106;-57
2023/01/16 00:39:38;;;;;;;9.52;3.00;;;4.00;99.90;;;;;;5071338;28;20052;-58
2023/01/16 00:42:06;;;;;;;10.63;3.13;;;4.10;99.90;;;;;;5053405;28;20128;-57
2023/01/16 00:44:33;;;;;;;10.48;3.22;;;4.00;99.90;;;;;;5071744;28;20106;-56
2023/01/16 00:47:00;;;;;;;12.73;3.15;;;4.20;99.90;;;;;;5070439;28;20083;-57
2023/01/16 00:49:26;;;;;;;10.23;2.50;;;4.10;99.90;;;;;;5070330;28;20057;-57
2023/01/16 00:51:54;;;;;;;9.38;2.47;;;4.10;99.90;;;;;;5062636;28;20052;-56
2023/01/16 00:54:20;;;;;;;11.50;2.88;;;4.10;99.90;;;;;;5056255;28;20110;-55
2023/01/16 00:56:47;;;;;;;9.20;2.90;;;4.20;99.90;;;;;;5063456;28;20387;-56
2023/01/16 00:59:15;;;;;;;10.65;2.90;;;4.20;99.90;;;;;;5070890;28;20044;-53
2023/01/16 01:01:42;;;;;;;13.48;2.80;;;4.10;99.90;;;;;;5053680;28;20667;-57
2023/01/16 01:04:09;;;;;;;14.18;2.83;;;4.20;99.90;;;;;;5072647;28;20495;-57
2023/01/16 01:06:36;;;;;;;9.63;2.45;;;4.10;99.90;;;;;;5052594;28;20052;-56
2023/01/16 01:09:03;;;;;;;10.65;2.72;;;4.10;99.90;;;;;;5068683;28;20466;-56
2023/01/16 01:11:30;;;;;;;7.95;3.05;;;4.00;99.90;;;;;;5070870;28;20538;-56
2023/01/16 01:13:57;;;;;;;13.88;3.03;;;4.10;99.90;;;;;;5052618;28;20045;-56
2023/01/16 01:16:25;;;;;;;12.07;3.10;;;4.10;99.90;;;;;;5069286;28;20070;-55
2023/01/16 01:18:52;;;;;;;11.73;2.80;;;4.10;99.90;;;;;;5050701;28;20080;-56
2023/01/16 01:21:19;;;;;;;12.50;3.15;;;4.00;99.90;;;;;;5052966;28;20053;-56
2023/01/16 01:23:45;;;;;;;9.35;2.97;;;4.00;99.90;;;;;;5070915;28;20049;-57
2023/01/16 01:26:13;;;;;;;8.18;2.63;;;4.00;99.90;;;;;;5070867;28;20076;-45
2023/01/16 01:28:40;;;;;;;13.75;3.15;;;4.00;99.90;;;;;;5053644;28;20084;-47
2023/01/16 01:31:08;;;;;;;13.38;3.33;;;4.00;99.90;;;;;;5069510;28;20045;-56
2023/01/16 01:33:36;;;;;;;7.88;2.80;;;4.00;99.90;;;;;;5068473;28;20056;-57
2023/01/16 01:36:03;;;;;;;14.35;3.45;;;4.00;99.90;;;;;;5049918;28;20397;-57
2023/01/16 01:38:30;;;;;;;12.38;2.90;;;3.90;99.90;;;;;;5057184;28;20095;-54
2023/01/16 01:40:57;;;;;;;9.50;3.00;;;4.00;99.90;;;;;;5051632;28;20045;-54
2023/01/16 01:43:40;;;;;;;14.52;2.95;;;4.00;99.90;;;;;;5052456;28;20428;-57
2023/01/16 01:46:06;;;;;;;8.40;2.70;;;4.00;99.90;;;;;;5069890;28;20048;-56
2023/01/16 01:48:38;;;;;;;8.90;2.80;;;4.00;99.90;;;;;;5072321;28;20094;-57
2023/01/16 01:51:06;;;;;;;9.18;2.60;;;4.00;99.90;;;;;;5070567;28;20053;-57
2023/01/16 01:53:35;;;;;;;13.50;3.05;;;4.00;99.90;;;;;;5070715;28;20094;-58
2023/01/16 01:56:03;;;;;;;8.57;2.63;;;4.10;99.90;;;;;;5052428;28;20543;-56
2023/01/16 01:58:30;;;;;;;11.55;2.85;;;4.00;99.90;;;;;;5072323;28;20106;-55
2023/01/16 02:00:57;;;;;;;10.07;2.67;;;4.00;99.90;;;;;;5054909;28;20093;-51
2023/01/16 02:03:25;;;;;;;13.85;2.92;;;4.10;99.90;;;;;;5073689;28;20049;-57
2023/01/16 02:05:54;;;;;;;11.88;2.80;;;4.10;99.90;;;;;;5065212;28;20071;-57
2023/01/16 02:08:22;;;;;;;11.93;2.45;;;4.10;99.90;;;;;;5072850;28;20450;-56
2023/01/16 02:10:50;;;;;;;10.00;3.00;;;4.00;99.90;;;;;;5074915;28;20072;-56
2023/01/16 02:13:17;;;;;;;11.43;3.10;;;4.10;99.90;;;;;;5070164;28;20040;-54
2023/01/16 02:21:13;;;;;;;10.15;2.50;;;4.10;99.90;;;;;;5075272;28;20403;-56
2023/01/16 02:24:06;;;;;;;9.15;2.60;;;4.00;99.90;;;;;;5075013;28;20098;-58
2023/01/16 02:26:56;;;;;;;17.30;3.08;;;4.00;99.90;;;;;;5073876;28;20045;-58
2023/01/16 02:29:51;;;;;;;9.73;2.75;;;4.00;99.90;;;;;;5070700;28;20667;-57
2023/01/16 02:32:33;;;;;;;9.45;2.60;;;4.00;99.90;;;;;;5054358;28;20068;-58
2023/01/16 02:35:11;;;;;;;11.45;3.28;;;4.00;99.90;;;;;;5071829;28;20099;-56
2023/01/16 02:37:43;;;;;;;6.80;2.67;;;4.00;99.90;;;;;;5069092;28;20492;-56
2023/01/16 02:40:17;;;;;;;12.77;2.70;;;4.00;99.90;;;;;;5072722;28;20087;-57
2023/01/16 02:42:45;;;;;;;10.30;3.13;;;4.10;99.90;;;;;;5070361;28;20079;-57
2023/01/16 02:45:17;;;;;;;9.45;2.97;;;4.10;99.90;;;;;;5073150;28;20131;-58
2023/01/16 02:47:46;;;;;;;9.55;3.05;;;4.10;99.90;;;;;;5072378;28;20098;-58
2023/01/16 02:50:19;;;;;;;12.88;3.38;;;4.20;99.90;;;;;;5054753;28;20052;-58
2023/01/16 02:52:49;;;;;;;16.40;3.80;;;4.20;99.90;;;;;;5072269;28;20045;-58
2023/01/16 02:55:20;;;;;;;14.55;4.18;;;4.20;99.90;;;;;;5071661;28;20044;-57
2023/01/16 02:57:48;;;;;;;9.10;3.50;;;4.20;99.90;;;;;;5052109;28;20460;-51
2023/01/16 03:00:16;;;;;;;10.65;3.42;;;4.20;99.90;;;;;;5036061;28;20049;-57
2023/01/16 03:02:45;;;;;;;12.50;3.58;;;4.30;99.90;;;;;;5067630;28;20056;-58
2023/01/16 03:05:12;;;;;;;14.48;3.45;;;4.30;99.90;;;;;;5045939;28;20044;-57
2023/01/16 03:08:07;;;;;;;11.43;3.55;;;4.30;99.90;;;;;;5066974;28;20105;-53
2023/01/16 03:11:11;;;;;;;13.75;4.20;;;4.30;99.90;;;;;;5054924;28;20102;-57
2023/01/16 03:13:50;;;;;;;9.45;3.72;;;4.30;99.90;;;;;;5026572;28;20138;-57
2023/01/16 03:16:24;;;;;;;13.45;3.80;;;4.30;99.90;;;;;;5067354;28;20048;-57
2023/01/16 03:18:55;;;;;;;11.43;3.97;;;4.30;99.90;;;;;;5063206;28;20049;-58
2023/01/16 03:21:27;;;;;;;12.18;3.80;;;4.40;99.90;;;;;;5060888;28;20060;-57
2023/01/16 03:23:55;;;;;;;12.65;3.60;;;4.30;99.90;;;;;;5072491;28;20094;-56
2023/01/16 03:26:27;;;;;;;11.15;4.35;;;4.30;99.90;;;;;;5053714;28;20139;-57
2023/01/16 03:28:59;;;;;;;9.40;4.03;;;4.40;99.90;;;;;;5053338;28;20052;-50
2023/01/16 03:31:33;;;;;;;11.77;4.18;;;4.40;99.90;;;;;;5046685;28;20045;-55
2023/01/16 03:34:08;;;;;;;8.18;4.35;;;4.40;99.90;;;;;;5034124;28;1073933;-57
2023/01/16 03:36:37;;;;;;;11.23;4.40;;;4.40;99.90;;;;;;5071154;28;20045;-58
2023/01/16 03:39:04;;;;;;;7.75;4.68;;;4.40;99.90;;;;;;5071148;28;20507;-57
2023/01/16 03:41:31;;;;;;;10.00;4.70;;;4.40;99.90;;;;;;5054470;28;20052;-57
2023/01/16 03:43:59;;;;;;;8.85;5.05;;;4.50;99.90;;;;;;5071757;28;20080;-56
2023/01/16 03:46:28;;;;;;;12.48;5.15;;;4.40;99.90;;;;;;5072105;28;20048;-57
2023/01/16 03:48:57;;;;;;;9.73;4.82;;;4.50;99.90;;;;;;5070406;28;20056;-57
2023/01/16 03:51:27;;;;;;;11.02;5.35;;;4.50;99.90;;;;;;5072308;28;20098;-58
2023/01/16 03:53:57;;;;;;;12.00;5.60;;;4.50;99.90;;;;;;5070423;28;20121;-58
2023/01/16 03:56:27;;;;;;;12.77;5.27;;;4.50;99.90;;;;;;5073544;28;20084;-55
2023/01/16 03:58:54;;;;;;;14.13;5.28;;;4.50;99.90;;;;;;5054589;28;20048;-54
2023/01/16 04:01:24;;;;;;;10.70;6.15;;;4.50;99.90;;;;;;5070653;28;20458;-57
2023/01/16 04:03:55;;;;;;;11.50;5.93;;;4.50;99.90;;;;;;5072363;28;20079;-54
2023/01/16 04:06:25;;;;;;;9.15;5.65;;;4.60;99.90;;;;;;5072101;28;20048;-51
2023/01/16 04:08:52;;;;;;;12.57;6.68;;;4.50;99.90;;;;;;5069954;28;20090;-57
2023/01/16 04:11:19;;;;;;;8.82;6.47;;;4.50;99.90;;;;;;5069862;28;20557;-54
2023/01/16 04:13:46;;;;;;;12.90;6.93;;;4.50;99.90;;;;;;5071877;28;20117;-56
2023/01/16 04:16:14;;;;;;;15.48;7.60;;;4.50;99.90;;;;;;5071002;28;20373;-56
2023/01/16 04:18:40;;;;;;;14.90;8.00;;;4.50;99.90;;;;;;5073160;28;20052;-56
2023/01/16 04:21:08;;;;;;;12.02;7.50;;;4.50;99.90;;;;;;5072375;28;20083;-51
2023/01/16 04:23:36;;;;;;;14.02;8.50;;;4.50;99.90;;;;;;5069704;28;20076;-58
2023/01/16 04:26:03;;;;;;;16.05;9.40;;;4.60;99.90;;;;;;5051671;28;20450;-55
2023/01/16 04:28:30;;;;;;;14.30;9.30;;;4.50;99.90;;;;;;5053400;28;20114;-55
2023/01/16 04:30:56;;;;;;;16.88;10.30;;;4.50;99.90;;;;;;5059647;28;20111;-56
2023/01/16 04:33:23;;;;;;;15.65;10.60;;;4.50;99.90;;;;;;5052917;28;20145;-53
2023/01/16 04:35:50;;;;;;;16.90;10.65;;;4.60;99.90;;;;;;5070992;28;20052;-55
2023/01/16 04:38:17;;;;;;;19.55;11.35;;;4.60;99.90;;;;;;5053620;28;20437;-53
2023/01/16 04:40:45;;;;;;;21.63;11.48;;;4.60;99.90;;;;;;5043462;28;20077;-56
2023/01/16 04:43:12;;;;;;;23.98;13.57;;;4.60;99.90;;;;;;5052870;28;20052;-57
2023/01/16 04:45:40;;;;;;;22.33;13.73;;;4.60;99.90;;;;;;5056943;28;20044;-55
2023/01/16 04:48:07;;;;;;;20.95;12.05;;;4.60;99.90;;;;;;5070969;28;20476;-57
2023/01/16 04:50:34;;;;;;;22.60;13.35;;;4.60;99.90;;;;;;5072915;28;20134;-50
2023/01/16 04:53:00;;;;;;;26.67;13.55;;;4.60;99.90;;;;;;5053691;28;20060;-57
2023/01/16 04:55:27;;;;;;;21.92;13.52;;;4.50;99.90;;;;;;5053399;28;20122;-56
2023/01/16 04:57:55;;;;;;;23.35;13.80;;;4.50;99.90;;;;;;5070568;28;20392;-56
2023/01/16 05:00:22;;;;;;;23.75;13.35;;;4.60;99.90;;;;;;5070439;28;22143;-56
2023/01/16 05:02:49;;;;;;;25.17;13.88;;;4.50;99.90;;;;;;5070909;28;20040;-56
2023/01/16 05:05:16;;;;;;;26.42;14.45;;;4.50;99.90;;;;;;5051395;28;20522;-53
2023/01/16 05:07:43;;;;;;;25.42;14.75;;;4.50;99.90;;;;;;5063869;28;20502;-56
2023/01/16 05:10:11;;;;;;;22.13;14.15;;;4.50;99.90;;;;;;5066746;28;20049;-55
2023/01/16 05:12:38;;;;;;;27.90;14.07;;;4.40;99.90;;;;;;5067572;28;20079;-57
2023/01/16 05:15:07;;;;;;;24.90;14.13;;;4.40;99.90;;;;;;5070137;28;20048;-57
2023/01/16 05:17:34;;;;;;;21.70;13.63;;;4.40;99.90;;;;;;5047559;28;20084;-57
2023/01/16 05:20:00;;;;;;;25.42;13.63;;;4.40;99.90;;;;;;5068203;28;20071;-57
2023/01/16 05:22:27;;;;;;;24.65;13.50;;;4.30;99.90;;;;;;5070958;28;20056;-57
2023/01/16 05:24:54;;;;;;;26.58;12.45;;;4.30;99.90;;;;;;5070917;28;20469;-56
2023/01/16 05:27:21;;;;;;;24.20;13.30;;;4.30;99.90;;;;;;5070272;28;20138;-52
2023/01/16 05:29:48;;;;;;;25.80;12.45;;;4.20;99.90;;;;;;5044776;28;20566;-57
2023/01/16 05:32:16;;;;;;;26.80;12.85;;;4.20;99.90;;;;;;5068196;28;20060;-55
2023/01/16 05:34:42;;;;;;;22.00;13.02;;;4.20;99.90;;;;;;5062728;28;20109;-56
2023/01/16 05:37:09;;;;;;;23.58;12.93;;;4.20;99.90;;;;;;5045852;28;20052;-52
2023/01/16 05:39:36;;;;;;;27.17;12.18;;;4.10;99.90;;;;;;5050977;28;20106;-57
2023/01/16 05:42:03;;;;;;;23.27;12.18;;;4.10;99.90;;;;;;5050176;28;20141;-53
2023/01/16 05:44:30;;;;;;;26.48;13.38;;;4.10;99.90;;;;;;5071705;28;20052;-56
2023/01/16 05:46:57;;;;;;;20.38;12.38;;;4.00;99.90;;;;;;5070744;28;20094;-52
2023/01/16 05:49:25;;;;;;;22.55;11.60;;;4.00;99.90;;;;;;5070783;28;20044;-57
2023/01/16 05:51:52;;;;;;;25.20;12.10;;;4.00;99.90;;;;;;5065486;28;20593;-56
2023/01/16 05:54:19;;;;;;;22.88;11.23;;;4.00;99.90;;;;;;5049481;28;20037;-53
2023/01/16 05:56:46;;;;;;;21.00;11.13;;;4.00;99.90;;;;;;5068202;28;20102;-46
2023/01/16 05:59:12;;;;;;;21.17;10.68;;;4.00;99.90;;;;;;5065142;28;20103;-57
2023/01/16 06:01:39;;;;;;;21.63;10.32;;;4.00;99.90;;;;;;5066104;28;20079;-58
2023/01/16 06:04:06;;;;;;;25.08;10.48;;;4.00;99.90;;;;;;5063787;28;20672;-50
2023/01/16 06:06:34;;;;;;;20.88;9.60;;;4.00;99.90;;;;;;5064423;28;20125;-51
2023/01/16 06:09:01;;;;;;;16.95;9.05;;;4.00;99.90;;;;;;5072344;28;20126;-53
2023/01/16 06:11:28;;;;;;;16.60;8.20;;;4.00;99.90;;;;;;5073245;28;20056;-55
2023/01/16 06:13:55;;;;;;;18.58;8.23;;;4.00;99.90;;;;;;5066903;28;20451;-56
2023/01/16 06:16:23;;;;;;;18.23;8.32;;;4.00;99.90;;;;;;5044175;28;20055;-56
2023/01/16 06:18:50;;;;;;;15.75;8.13;;;4.00;99.90;;;;;;5073896;28;20041;-51
2023/01/16 06:21:17;;;;;;;17.45;7.88;;;4.00;99.90;;;;;;5070842;28;20130;-56
2023/01/16 06:23:45;;;;;;;17.80;7.50;;;3.90;99.90;;;;;;5067717;28;20950;-52
2023/01/16 06:26:12;;;;;;;18.70;7.72;;;4.10;99.90;;;;;;5052474;28;20385;-54
2023/01/16 06:28:38;;;;;;;19.33;7.88;;;3.90;99.90;;;;;;5065750;28;20048;-57
2023/01/16 06:31:06;;;;;;;19.25;7.70;;;4.00;99.90;;;;;;5058081;28;20053;-57
2023/01/16 06:33:32;;;;;;;12.10;6.70;;;3.90;99.90;;;;;;5074309;28;20561;-55
2023/01/16 06:35:59;;;;;;;19.48;7.35;;;3.90;99.90;;;;;;5074025;28;20110;-55
2023/01/16 06:38:26;;;;;;;15.82;7.40;;;3.90;99.90;;;;;;5071667;28;20136;-56
2023/01/16 06:40:55;;;;;;;15.95;7.28;;;3.80;99.90;;;;;;5053962;28;20151;-56
2023/01/16 06:43:23;;;;;;;17.77;7.20;;;3.80;99.90;;;;;;5069017;28;20277;-49
2023/01/16 06:45:50;;;;;;;9.90;6.05;;;3.80;99.90;;;;;;5067438;28;20114;-52
2023/01/16 06:48:17;;;;;;;17.23;6.82;;;3.80;99.90;;;;;;5054159;28;20064;-58
2023/01/16 06:50:44;;;;;;;12.95;6.57;;;3.90;99.90;;;;;;5052790;28;20049;-57
2023/01/16 06:53:10;;;;;;;18.75;6.82;;;3.80;99.90;;;;;;5072993;28;20057;-57
2023/01/16 06:55:37;;;;;;;17.88;6.72;;;3.80;99.90;;;;;;5064703;28;20134;-56
2023/01/16 06:58:05;;;;;;;14.38;6.43;;;3.80;99.90;;;;;;5053868;28;20131;-58
2023/01/16 07:00:33;;;;;;;12.93;5.75;;;3.80;99.90;;;;;;5071429;28;20045;-57
2023/01/16 07:03:00;;;;;;;15.48;6.60;;;3.80;99.90;;;;;;5072828;28;20052;-56
2023/01/16 07:05:28;;;;;;;14.07;6.00;;;3.80;99.90;;;;;;5073200;28;20048;-57
2023/01/16 07:07:54;;;;;;;22.23;6.53;;;3.80;99.90;;;;;;5054485;28;20110;-54
2023/01/16 07:10:22;;;;;;;16.38;6.72;;;3.80;99.90;;;;;;5070890;28;20048;-56
2023/01/16 07:12:48;;;;;;;21.58;6.30;;;3.70;99.90;;;;;;5054843;28;20084;-56
2023/01/16 07:23:42;;;;;;;17.15;6.32;;;3.70;99.90;;;;;;5069063;28;20496;-48
2023/01/16 07:26:10;;;;;;;19.90;7.40;;;3.70;99.90;;;;;;5075077;28;20056;-55
2023/01/16 07:28:36;;;;;;;19.40;6.95;;;3.70;99.90;;;;;;5073186;28;20053;-53
2023/01/16 07:31:05;;;;;;;17.73;6.60;;;3.60;99.90;;;;;;5062761;28;20057;-56
2023/01/16 07:33:32;;;;;;;16.65;6.05;;;3.60;99.90;;;;;;5036278;28;20393;-58
2023/01/16 07:35:59;;;;;;;16.92;6.20;;;3.60;99.90;;;;;;5063156;28;20491;-57
2023/01/16 07:38:25;;;;;;;13.43;6.43;;;3.60;99.90;;;;;;5055465;28;20060;-57
2023/01/16 07:40:52;;;;;;;11.00;5.93;;;3.60;99.90;;;;;;5056283;28;20135;-58
2023/01/16 07:43:19;;;;;;;16.80;6.13;;;3.60;99.90;;;;;;5074266;28;20052;-57
2023/01/16 07:45:51;;;;;;;15.18;6.35;;;3.60;99.90;;;;;;5073809;28;20099;-57
2023/01/16 07:48:20;;;;;;;17.83;6.78;;;3.60;99.90;;;;;;5052653;28;20127;-57
2023/01/16 07:50:51;;;;;;;20.58;6.00;;;3.60;99.90;;;;;;5056088;28;20052;-57
2023/01/16 07:53:21;;;;;;;22.13;5.90;;;3.60;99.90;;;;;;5056326;28;20052;-55
2023/01/16 07:55:48;;;;;;;17.83;6.25;;;3.60;99.90;;;;;;5055793;28;20060;-55
2023/01/16 07:58:15;;;;;;;17.45;6.55;;;3.60;99.90;;;;;;5072272;28;20053;-57
2023/01/16 08:00:42;;;;;;;17.52;6.60;;;3.70;99.90;;;;;;5070403;28;20048;-56
2023/01/16 08:03:08;;;;;;;14.25;6.53;;;3.70;99.90;;;;;;5072972;28;20052;-57
2023/01/16 08:05:37;;;;;;;12.25;5.60;;;3.70;99.90;;;;;;5073416;28;20565;-59
2023/01/16 08:08:04;;;;;;;20.42;6.35;;;3.70;99.90;;;;;;5071180;28;20139;-56
2023/01/16 08:10:30;;;;;;;12.43;6.35;;;3.70;99.90;;;;;;5071223;28;20086;-56
2023/01/16 08:12:57;;;;;;;11.50;6.20;;;3.70;99.90;;;;;;5055877;28;20094;-57
2023/01/16 08:15:24;;;;;;;16.92;6.22;;;3.70;99.90;;;;;;5073298;28;20450;-57
2023/01/16 08:17:51;;;;;;;18.73;6.20;;;3.70;99.90;;;;;;5072567;28;20072;-49
2023/01/16 08:20:18;;;;;;;22.33;6.30;;;3.70;99.90;;;;;;5035738;28;20045;-57
2023/01/16 08:22:46;;;;;;;13.50;6.40;;;3.70;99.90;;;;;;5071112;28;20059;-56
2023/01/16 08:25:13;;;;;;;13.20;6.22;;;3.80;99.90;;;;;;5054099;28;20083;-56
2023/01/16 08:27:40;;;;;;;20.55;8.18;;;3.80;99.90;;;;;;5073257;28;20114;-56
2023/01/16 08:30:08;;;;;;;13.50;5.82;;;3.80;99.90;;;;;;5072929;28;20052;-56
2023/01/16 08:32:35;;;;;;;13.88;6.10;;;3.80;99.90;;;;;;5071911;28;20045;-52
2023/01/16 08:35:03;;;;;;;16.48;6.07;;;3.90;99.90;;;;;;5073161;28;20095;-56
2023/01/16 08:37:30;;;;;;;17.75;6.85;;;3.90;99.90;;;;;;5072975;28;20049;-56
2023/01/16 08:39:58;;;;;;;16.13;6.30;;;3.90;99.90;;;;;;5052799;28;20060;-61
2023/01/16 08:53:19;;;;;;;14.05;5.50;;;3.90;99.90;;;;;;5052900;28;20416;-58
2023/01/16 08:55:49;;;;;;;15.38;5.60;;;3.90;99.90;;;;;;5052597;28;20103;-60
2023/01/16 08:58:15;;;;;;;12.05;5.18;;;4.00;99.90;;;;;;5053480;28;20051;-61
2023/01/16 09:00:42;;;;;;;14.25;5.07;;;4.00;99.90;;;;;;5069528;28;20049;-60
2023/01/16 09:03:10;;;;;;;11.50;5.03;;;4.00;99.90;;;;;;5072765;28;20101;-60
2023/01/16 09:05:37;;;;;;;8.40;4.63;;;4.00;99.90;;;;;;5069481;28;20048;-57
2023/01/16 09:08:04;;;;;;;15.18;5.10;;;4.00;99.90;;;;;;5071391;28;20495;-66
2023/01/16 09:10:31;;;;;;;13.68;5.38;;;4.10;99.90;;;;;;5073018;28;20084;-65
2023/01/16 09:15:43;;;;;;;12.18;4.40;;;4.10;99.90;;;;;;5073022;28;20056;-63
2023/01/16 09:18:10;;;;;;;10.82;4.57;;;4.10;99.90;;;;;;5073168;28;20091;-65
2023/01/16 09:20:37;;;;;;;12.98;5.15;;;4.10;99.90;;;;;;5072923;28;20090;-60
2023/01/16 09:23:04;;;;;;;10.98;4.30;;;4.10;99.90;;;;;;5071633;28;20504;-63
2023/01/16 09:25:31;;;;;;;9.63;4.28;;;4.20;99.90;;;;;;5070911;28;20055;-62
2023/01/16 09:28:00;;;;;;;12.35;4.13;;;4.10;99.90;;;;;;5072424;28;20091;-62
2023/01/16 09:30:27;;;;;;;8.93;3.90;;;4.10;99.90;;;;;;5070434;28;20553;-61
2023/01/16 09:32:53;;;;;;;10.70;4.35;;;4.20;99.90;;;;;;5054642;28;20053;-59
2023/01/16 09:35:20;;;;;;;9.60;3.88;;;4.10;99.90;;;;;;5034792;28;20493;-58
2023/01/16 09:37:47;;;;;;;7.57;3.60;;;4.20;99.90;;;;;;5072249;28;20133;-59
2023/01/16 09:40:16;;;;;;;10.95;3.80;;;4.20;99.90;;;;;;5071202;28;20554;-59
2023/01/16 09:45:43;;;;;;;11.50;3.63;;;4.20;99.90;;;;;;5057036;28;20147;-62
2023/01/16 09:48:12;;;;;;;7.07;3.65;;;4.30;99.90;;;;;;5052746;28;20055;-61
2023/01/16 09:50:40;;;;;;;6.63;3.78;;;4.20;99.90;;;;;;5070275;28;20127;-58
2023/01/16 09:58:41;;;;;;;10.80;3.30;;;4.30;99.90;;;;;;5070505;28;20048;-62
2023/01/16 10:01:11;;;;;;;10.68;3.05;;;4.30;99.90;;;;;;5070283;28;20463;-46
2023/01/16 10:03:42;;;;;;;6.57;2.78;;;4.30;99.90;;;;;;5052112;28;20122;-63
2023/01/16 10:06:14;;;;;;;11.25;2.92;;;4.30;99.90;;;;;;5054559;28;20058;-56
2023/01/16 10:08:44;;;;;;;8.10;3.03;;;4.30;99.90;;;;;;5054300;28;20146;-60
2023/01/16 10:11:14;;;;;;;8.07;2.53;;;4.30;99.90;;;;;;5070348;28;20136;-61
2023/01/16 10:13:54;;;;;;;6.28;2.58;;;4.30;99.90;;;;;;5069729;28;20076;-65
2023/01/16 10:16:29;;;;;;;7.60;2.30;;;4.30;99.90;;;;;;5069969;28;20095;-65
2023/01/16 10:18:58;;;;;;;6.65;2.47;;;4.40;99.90;;;;;;5054593;28;20098;-66
2023/01/16 10:21:36;;;;;;;6.22;2.08;;;4.30;99.90;;;;;;5071363;28;20095;-64
2023/01/16 10:24:07;;;;;;;6.80;2.30;;;4.30;99.90;;;;;;5075789;28;20052;-66
2023/01/16 10:26:38;;;;;;;4.72;2.05;;;4.30;99.90;;;;;;5074486;28;20050;-68
2023/01/16 10:29:11;;;;;;;5.65;2.55;;;4.40;99.90;;;;;;5071078;28;20040;-61
2023/01/16 10:31:41;;;;;;;5.28;2.20;;;4.30;99.90;;;;;;5071527;28;20500;-66
2023/01/16 10:34:10;;;;;;;7.78;2.05;;;4.30;99.90;;;;;;5038379;28;20500;-65
2023/01/16 10:36:40;;;;;;;6.35;1.85;;;4.30;99.90;;;;;;5075364;28;20086;-61
2023/01/16 10:39:08;;;;;;;2.30;1.30;;;4.20;99.90;;;;;;5054618;28;20087;-59
2023/01/16 10:50:03;;;;;;;4.70;1.63;;;4.20;99.90;;;;;;5074603;28;20041;-59
2023/01/16 10:52:30;;;;;;;4.00;2.13;;;4.10;99.90;;;;;;5057352;28;20049;-57
2023/01/16 10:54:57;;;;;;;6.28;2.25;;;4.10;99.90;;;;;;5056108;28;20052;-63
2023/01/16 10:57:24;;;;;;;4.15;2.45;;;4.20;99.90;;;;;;5057106;28;20439;-56
2023/01/16 10:59:52;;;;;;;6.10;2.38;;;4.10;99.90;;;;;;5055955;28;20043;-62
2023/01/16 11:02:24;;;;;;;4.28;2.13;;;4.10;99.90;;;;;;5074738;28;20048;-62
2023/01/16 11:04:51;;;;;;;3.97;1.88;;;4.10;99.90;;;;;;5057695;28;20080;-59
2023/01/16 11:07:19;;;;;;;4.57;2.10;;;4.10;99.90;;;;;;5065515;28;20076;-60
2023/01/16 11:09:46;;;;;;;3.33;2.22;;;4.10;99.90;;;;;;5074152;28;20045;-57
2023/01/16 11:20:38;;;;;;;7.45;2.50;;;4.10;99.90;;;;;;5072977;28;20044;-62
2023/01/16 11:23:06;;;;;;;5.97;3.20;;;4.20;99.90;;;;;;5072208;28;20053;-62
2023/01/16 11:25:32;;;;;;;5.15;2.50;;;4.20;99.90;;;;;;5072843;28;20489;-61
2023/01/16 11:28:02;;;;;;;4.55;2.58;;;4.20;99.90;;;;;;5055480;28;20124;-62
2023/01/16 11:30:30;;;;;;;5.20;2.58;;;4.20;99.90;;;;;;5054431;28;20059;-64
2023/01/16 11:32:58;;;;;;;5.15;2.35;;;4.20;99.90;;;;;;5047347;28;20103;-57
2023/01/16 11:35:26;;;;;;;6.70;2.55;;;4.20;99.90;;;;;;5039622;28;20098;-54
2023/01/16 11:37:53;;;;;;;5.68;2.85;;;4.20;99.90;;;;;;5072422;28;20114;-63
2023/01/16 11:40:21;;;;;;;3.20;2.30;;;4.20;99.90;;;;;;5073354;28;20044;-59
2023/01/16 11:48:34;;;;;;;5.00;2.38;;;4.20;99.90;;;;;;5054788;28;20131;-48
2023/01/16 11:51:01;;;;;;;4.30;2.47;;;4.20;99.90;;;;;;5073989;28;20118;-63
2023/01/16 11:53:31;;;;;;;6.60;3.30;;;4.20;99.90;;;;;;5054844;28;20476;-58
2023/01/16 11:56:11;;;;;;;6.13;2.95;;;4.20;99.90;;;;;;5055966;28;20044;-62
2023/01/16 11:58:44;;;;;;;4.95;2.60;;;4.20;99.90;;;;;;5054651;28;20052;-57
2023/01/16 12:01:12;;;;;;;3.92;2.50;;;4.30;99.90;;;;;;5072424;28;20072;-62
2023/01/16 12:04:05;;;;;;;4.88;2.65;;;4.30;99.90;;;;;;5073391;28;20385;-62
2023/01/16 12:06:52;;;;;;;5.22;2.17;;;4.30;99.90;;;;;;5054106;28;20106;-62
2023/01/16 12:09:40;;;;;;;3.08;2.28;;;4.30;99.90;;;;;;5073487;28;20135;-60
2023/01/16 12:15:03;;;;;;;4.50;2.10;;;4.40;99.90;;;;;;5054881;28;20458;-58
2023/01/16 12:17:39;;;;;;;4.47;2.20;;;4.30;99.90;;;;;;5055621;28;20088;-60
2023/01/16 12:20:35;;;;;;;7.28;2.50;;;4.40;99.90;;;;;;5073258;28;20464;-63
2023/01/16 12:23:16;;;;;;;9.75;2.67;;;4.40;99.90;;;;;;5021659;28;20056;-54
2023/01/16 12:25:46;;;;;;;9.48;2.55;;;4.40;99.90;;;;;;5053304;28;20464;-62
2023/01/16 12:28:18;;;;;;;4.28;2.50;;;4.50;99.90;;;;;;5054247;28;20185;-57
2023/01/16 12:31:06;;;;;;;7.88;2.38;;;4.50;99.90;;;;;;5073202;28;20095;-57
2023/01/16 12:33:36;;;;;;;5.05;2.38;;;4.50;99.90;;;;;;5072966;28;20052;-60
2023/01/16 12:36:08;;;;;;;6.20;2.42;;;4.50;99.90;;;;;;5069942;28;20048;-62
2023/01/16 12:38:36;;;;;;;6.82;2.53;;;4.50;99.90;;;;;;5055510;28;20133;-60
2023/01/16 12:44:19;;;;;;;9.10;2.40;;;4.50;99.90;;;;;;5065628;28;20056;-61
2023/01/16 12:46:50;;;;;;;4.32;2.10;;;4.60;99.90;;;;;;5039865;28;20095;-63
2023/01/16 12:49:25;;;;;;;6.43;2.80;;;4.60;99.90;;;;;;5070342;28;20109;-61
2023/01/16 12:52:17;;;;;;;6.32;2.63;;;4.60;99.90;;;;;;5050887;28;20092;-61
2023/01/16 12:54:54;;;;;;;6.93;3.28;;;4.60;99.90;;;;;;5045264;28;20072;-61
2023/01/16 12:57:48;;;;;;;5.15;3.22;;;4.60;99.90;;;;;;5071007;28;20083;-60
2023/01/16 13:00:16;;;;;;;6.63;2.80;;;4.60;99.90;;;;;;5050249;28;20463;-53
2023/01/16 13:02:44;;;;;;;8.00;3.22;;;4.70;99.90;;;;;;5067257;28;20053;-59
2023/01/16 13:05:17;;;;;;;4.55;3.10;;;4.60;99.90;;;;;;5059307;28;20084;-59
2023/01/16 13:07:51;;;;;;;4.75;3.03;;;4.70;99.90;;;;;;5067849;28;20546;-58
2023/01/16 13:13:24;;;;;;;5.68;2.75;;;4.80;99.90;;;;;;5070225;28;20049;-61
2023/01/16 13:15:55;;;;;;;6.22;3.45;;;4.70;99.90;;;;;;5045992;28;20135;-54
2023/01/16 13:18:23;;;;;;;7.10;3.22;;;4.70;99.90;;;;;;5054735;28;20461;-59
2023/01/16 13:20:52;;;;;;;6.75;3.10;;;4.80;99.90;;;;;;5050411;28;20159;-60
2023/01/16 13:23:21;;;;;;;5.38;2.92;;;4.70;99.90;;;;;;5054790;28;20136;-63
2023/01/16 13:25:49;;;;;;;4.88;3.08;;;4.70;99.90;;;;;;5069498;28;20151;-58
2023/01/16 13:28:18;;;;;;;6.45;3.08;;;4.80;99.90;;;;;;5068855;28;20415;-56
2023/01/16 13:30:45;;;;;;;5.22;2.63;;;4.80;99.90;;;;;;5067855;28;20136;-61
2023/01/16 13:33:12;;;;;;;4.97;2.60;;;4.90;99.90;;;;;;5064073;28;20114;-52
2023/01/16 13:35:42;;;;;;;5.55;3.30;;;4.90;99.90;;;;;;5070194;28;20049;-59
2023/01/16 13:38:26;;;;;;;4.78;2.50;;;4.80;99.90;;;;;;5071372;28;20562;-61
2023/01/16 13:41:19;;;;;;;5.93;2.92;;;4.80;99.90;;;;;;5066308;28;20076;-57
2023/01/16 13:46:33;;;;;;;5.30;2.90;;;4.80;99.90;;;;;;5069093;28;20135;-61
2023/01/16 13:49:01;;;;;;;4.60;2.40;;;4.90;99.90;;;;;;5060629;28;20137;-48
2023/01/16 13:51:28;;;;;;;5.78;2.60;;;4.90;99.90;;;;;;5053569;28;20113;-62
2023/01/16 13:53:58;;;;;;;6.35;2.53;;;4.90;99.90;;;;;;5056266;28;20518;-61
2023/01/16 13:56:26;;;;;;;5.43;2.80;;;4.90;99.90;;;;;;5059960;28;20063;-58
2023/01/16 13:58:55;;;;;;;6.97;2.42;;;4.90;99.90;;;;;;5062627;28;20048;-52
2023/01/16 14:01:37;;;;;;;5.82;2.10;;;4.90;99.90;;;;;;5068160;28;20068;-61
2023/01/16 14:04:12;;;;;;;4.43;2.60;;;5.00;99.90;;;;;;5056738;28;20048;-60
2023/01/16 14:06:43;;;;;;;6.88;2.95;;;5.00;99.90;;;;;;5071596;28;20424;-57
2023/01/16 14:09:20;;;;;;;4.28;2.90;;;4.90;99.90;;;;;;5070345;28;20048;-59
2023/01/16 14:12:17;;;;;;;6.55;2.78;;;5.00;99.90;;;;;;5049618;28;20055;-59